Terminal Aerodrome Forecast
Issued by NWS

Home | Current Version | Previous Version | Graphics & Text | Print | Product List | Glossary On
Versions: 1 2 3 4 5 6 7 8 9 10 11 12 13 14 15 16 17 18 19 20 21 22 23 24 25 26
000
FTUS43 KTOP 180800 AAB
TAFMHK
TAF AMD
KMHK 180822Z 1808/1906 08003KT 6SM BR BKN100
      TEMPO 1808/1812 2SM BR BKN005
     FM181600 12009KT P6SM SCT035 BKN150=

USA.gov is the U.S. government's official web portal to all federal, state and local government web resources and services.